createdAt,value
2018-12-20T00:02:10.790Z,37.00
2018-12-20T00:04:39.098Z,31.67
2018-12-20T00:07:07.331Z,35.63
2018-12-20T00:09:35.790Z,32.70
2018-12-20T00:12:05.089Z,34.20
2018-12-20T00:14:33.266Z,37.23
2018-12-20T00:17:07.198Z,33.93
2018-12-20T00:19:35.493Z,34.87
2018-12-20T00:22:03.874Z,36.13
2018-12-20T00:24:32.169Z,30.23
2018-12-20T00:27:00.623Z,37.23
2018-12-20T00:29:29.139Z,36.20
2018-12-20T00:31:57.464Z,36.97
2018-12-20T00:34:25.904Z,35.60
2018-12-20T00:36:54.205Z,37.50
2018-12-20T00:39:22.610Z,30.97
2018-12-20T00:41:51.087Z,33.13
2018-12-20T00:44:19.450Z,36.57
2018-12-20T00:46:47.769Z,28.63
2018-12-20T00:49:16.137Z,38.80
2018-12-20T00:51:44.455Z,40.27
2018-12-20T00:54:12.683Z,37.40
2018-12-20T00:56:41.054Z,35.13
2018-12-20T00:59:09.430Z,37.63
2018-12-20T01:01:37.631Z,41.60
2018-12-20T01:04:05.946Z,35.40
2018-12-20T01:06:34.145Z,36.43
2018-12-20T01:09:02.498Z,39.80
2018-12-20T01:11:30.780Z,37.00
2018-12-20T01:13:59.055Z,38.93
2018-12-20T01:16:27.242Z,36.60
2018-12-20T01:18:55.525Z,36.37
2018-12-20T01:21:23.929Z,33.83
2018-12-20T01:23:52.725Z,32.87
2018-12-20T01:26:21.600Z,41.03
2018-12-20T01:28:49.964Z,35.40
2018-12-20T01:31:18.172Z,35.93
2018-12-20T01:33:46.388Z,31.07
2018-12-20T01:36:14.784Z,30.57
2018-12-20T01:38:43.398Z,36.07
2018-12-20T01:41:11.730Z,38.20
2018-12-20T01:43:39.988Z,41.10
2018-12-20T01:46:08.397Z,32.40
2018-12-20T01:48:36.791Z,39.37
2018-12-20T01:51:04.997Z,39.37
2018-12-20T01:53:33.302Z,34.93
2018-12-20T01:56:01.502Z,38.67
2018-12-20T01:58:29.914Z,38.27
2018-12-20T02:00:58.370Z,38.30
2018-12-20T02:03:26.902Z,45.93
2018-12-20T02:05:55.094Z,34.77
2018-12-20T02:08:23.393Z,32.63
2018-12-20T02:10:51.574Z,40.23
2018-12-20T02:13:19.978Z,37.97
2018-12-20T02:15:48.587Z,35.53
2018-12-20T02:18:16.998Z,40.03
2018-12-20T02:20:45.165Z,43.60
2018-12-20T02:23:13.628Z,42.30
2018-12-20T02:25:41.890Z,40.90
2018-12-20T02:28:10.102Z,32.40
2018-12-20T02:30:38.400Z,40.73
2018-12-20T02:33:06.608Z,41.47
2018-12-20T02:35:34.972Z,41.70
2018-12-20T02:38:03.430Z,42.73
2018-12-20T02:40:31.642Z,40.40
2018-12-20T02:42:59.894Z,43.00
2018-12-20T02:45:28.209Z,40.10
2018-12-20T02:47:56.579Z,36.07
2018-12-20T02:50:25.076Z,42.20
2018-12-20T02:52:53.559Z,40.40
2018-12-20T02:55:21.882Z,42.40
2018-12-20T02:57:50.216Z,44.17
2018-12-20T03:00:18.645Z,42.13
2018-12-20T03:02:47.174Z,38.63
2018-12-20T03:05:15.411Z,43.17
2018-12-20T03:07:43.763Z,38.10
2018-12-20T03:10:12.253Z,40.07
2018-12-20T03:12:40.582Z,43.80
2018-12-20T03:15:08.900Z,37.33
2018-12-20T03:17:37.371Z,41.80
2018-12-20T03:20:06.536Z,41.10
2018-12-20T03:22:34.966Z,38.23
2018-12-20T03:25:03.220Z,41.97
2018-12-20T03:27:31.396Z,36.00
2018-12-20T03:29:59.804Z,40.43
2018-12-20T03:32:28.059Z,43.97
2018-12-20T03:34:56.352Z,40.50
2018-12-20T03:37:24.794Z,45.20
2018-12-20T03:39:53.406Z,40.87
2018-12-20T03:42:21.721Z,37.57
2018-12-20T03:44:50.145Z,38.57
2018-12-20T03:47:18.429Z,41.00
2018-12-20T03:49:46.978Z,34.77
2018-12-20T03:52:15.400Z,39.60
2018-12-20T03:54:43.942Z,40.53
2018-12-20T03:57:12.457Z,43.60
2018-12-20T03:59:40.778Z,44.37
2018-12-20T04:02:09.070Z,45.60
2018-12-20T04:04:37.627Z,39.30
2018-12-20T04:07:06.179Z,40.17
2018-12-20T04:09:34.658Z,42.37
2018-12-20T04:12:02.881Z,41.53
2018-12-20T04:14:31.088Z,39.60
2018-12-20T04:17:00.041Z,42.83
2018-12-20T04:19:28.576Z,43.60
2018-12-20T04:21:57.050Z,48.27
2018-12-20T04:24:25.574Z,45.27
2018-12-20T04:26:53.999Z,48.70
2018-12-20T04:29:22.299Z,41.47
2018-12-20T04:31:50.532Z,51.73
2018-12-20T04:34:18.907Z,47.17
2018-12-20T04:36:47.191Z,43.00
2018-12-20T04:39:15.364Z,42.80
2018-12-20T04:41:43.662Z,48.07
2018-12-20T04:44:11.868Z,41.10
2018-12-20T04:46:40.289Z,42.27
2018-12-20T04:49:08.833Z,41.97
2018-12-20T04:51:37.248Z,44.27
2018-12-20T04:54:05.560Z,46.13
2018-12-20T04:56:33.761Z,42.40
2018-12-20T04:59:02.055Z,45.87
2018-12-20T05:01:30.338Z,47.20
2018-12-20T05:03:58.946Z,42.27
2018-12-20T05:06:27.380Z,40.40
2018-12-20T05:08:55.972Z,44.20
2018-12-20T05:11:24.357Z,44.00
2018-12-20T05:13:52.660Z,46.67
2018-12-20T05:16:20.968Z,44.97
2018-12-20T05:18:49.435Z,46.10
2018-12-20T05:21:17.814Z,47.60
2018-12-20T05:23:46.140Z,47.30
2018-12-20T05:26:14.464Z,41.27
2018-12-20T05:28:42.882Z,50.60
2018-12-20T05:31:11.164Z,50.97
2018-12-20T05:33:39.360Z,42.13
2018-12-20T05:36:07.908Z,50.83
2018-12-20T05:38:36.308Z,44.70
2018-12-20T05:41:04.704Z,46.63
2018-12-20T05:43:32.931Z,46.80
2018-12-20T05:46:04.615Z,46.10
2018-12-20T05:48:31.337Z,47.00
2018-12-20T05:50:59.551Z,54.67
2018-12-20T05:53:27.751Z,53.83
2018-12-20T05:55:56.598Z,46.20
2018-12-20T05:58:24.868Z,52.27
2018-12-20T06:00:53.031Z,51.10
2018-12-20T06:03:21.274Z,61.90
2018-12-20T06:05:49.673Z,55.07
2018-12-20T06:08:17.845Z,50.87
2018-12-20T06:10:46.021Z,45.73
2018-12-20T06:13:14.250Z,46.13
2018-12-20T06:15:42.425Z,47.90
2018-12-20T06:18:10.745Z,44.60
2018-12-20T06:20:39.508Z,47.60
2018-12-20T06:23:07.753Z,48.07
2018-12-20T06:25:35.918Z,48.93
2018-12-20T06:28:04.124Z,46.40
2018-12-20T06:30:32.298Z,53.13
2018-12-20T06:33:00.475Z,50.10
2018-12-20T06:35:28.699Z,52.20
2018-12-20T06:37:56.888Z,48.70
2018-12-20T06:40:25.129Z,49.27
2018-12-20T06:42:53.343Z,46.80
2018-12-20T06:45:21.511Z,48.07
2018-12-20T06:47:49.782Z,49.20
2018-12-20T06:50:17.994Z,50.47
2018-12-20T06:52:46.191Z,54.87
2018-12-20T06:55:14.454Z,50.37
2018-12-20T06:57:42.796Z,54.30
2018-12-20T07:00:11.104Z,59.10
2018-12-20T07:02:39.486Z,47.07
2018-12-20T07:05:07.958Z,59.27
2018-12-20T07:07:36.138Z,61.57
2018-12-20T07:10:06.384Z,52.30
2018-12-20T07:12:34.740Z,49.83
2018-12-20T07:15:02.912Z,49.37
2018-12-20T07:17:31.087Z,52.20
2018-12-20T07:19:59.335Z,55.33
2018-12-20T07:22:27.576Z,57.20
2018-12-20T07:24:55.924Z,51.93
2018-12-20T07:27:24.173Z,51.23
2018-12-20T07:29:52.396Z,54.40
2018-12-20T07:32:25.076Z,54.93
2018-12-20T07:34:50.935Z,56.40
2018-12-20T07:37:19.113Z,54.50
2018-12-20T07:39:47.396Z,57.63
2018-12-20T07:42:15.597Z,53.23
2018-12-20T07:44:43.769Z,58.67
2018-12-20T07:47:12.243Z,57.50
2018-12-20T07:49:40.449Z,61.57
2018-12-20T07:52:08.616Z,51.93
2018-12-20T07:54:36.894Z,56.90
2018-12-20T07:57:05.097Z,54.53
2018-12-20T07:59:33.271Z,56.07
2018-12-20T08:02:01.462Z,54.67
2018-12-20T08:04:29.656Z,60.83
2018-12-20T08:06:57.832Z,56.67
2018-12-20T08:09:25.991Z,60.33
2018-12-20T08:11:54.177Z,67.53
2018-12-20T08:14:22.353Z,52.83
2018-12-20T08:16:50.749Z,65.10
2018-12-20T08:19:18.949Z,58.57
2018-12-20T08:21:47.115Z,58.83
2018-12-20T08:24:15.297Z,58.87
2018-12-20T08:26:43.498Z,64.87
2018-12-20T08:29:11.875Z,52.80
2018-12-20T08:31:40.211Z,56.00
2018-12-20T08:34:08.542Z,57.53
2018-12-20T08:36:36.714Z,55.37
2018-12-20T08:39:07.239Z,48.83
2018-12-20T08:41:35.518Z,56.57
2018-12-20T08:44:03.688Z,66.80
2018-12-20T08:46:31.866Z,58.93
2018-12-20T08:49:00.107Z,58.63
2018-12-20T08:51:28.333Z,62.47
2018-12-20T08:53:56.619Z,58.37
2018-12-20T08:56:24.805Z,53.33
2018-12-20T08:58:52.977Z,57.13
2018-12-20T09:01:21.155Z,58.83
2018-12-20T09:03:49.398Z,60.70
2018-12-20T09:06:17.579Z,58.10
2018-12-20T09:08:45.821Z,67.60
2018-12-20T09:11:14.026Z,64.03
2018-12-20T09:13:42.194Z,55.97
2018-12-20T09:16:10.369Z,58.93
2018-12-20T09:18:38.569Z,64.33
2018-12-20T09:21:06.740Z,66.03
2018-12-20T09:23:34.910Z,58.03
2018-12-20T09:26:03.179Z,59.73
2018-12-20T09:28:31.362Z,62.57
2018-12-20T09:30:59.542Z,58.33
2018-12-20T09:33:27.740Z,61.20
2018-12-20T09:35:55.914Z,60.70
2018-12-20T09:38:24.095Z,64.90
2018-12-20T09:40:52.290Z,65.57
2018-12-20T09:43:20.544Z,68.93
2018-12-20T09:45:48.732Z,64.10
2018-12-20T09:48:16.927Z,60.77
2018-12-20T09:50:45.117Z,69.10
2018-12-20T09:53:13.648Z,71.93
2018-12-20T09:55:41.846Z,71.57
2018-12-20T09:58:10.027Z,77.50
2018-12-20T10:00:38.200Z,81.37
2018-12-20T10:03:06.483Z,78.60
2018-12-20T10:05:34.668Z,80.40
2018-12-20T10:08:02.990Z,78.90
2018-12-20T10:10:31.311Z,84.87
2018-12-20T10:12:59.651Z,83.63
2018-12-20T10:15:27.830Z,78.77
2018-12-20T10:17:56.137Z,83.53
2018-12-20T10:20:24.329Z,87.17
2018-12-20T10:22:52.512Z,75.37
2018-12-20T10:25:20.713Z,81.77
2018-12-20T10:27:48.888Z,87.50
2018-12-20T10:30:17.078Z,77.43
2018-12-20T10:32:45.350Z,96.63
2018-12-20T10:35:13.524Z,74.57
2018-12-20T10:37:41.697Z,94.80
2018-12-20T10:40:10.082Z,74.60
2018-12-20T10:42:38.268Z,82.63
2018-12-20T10:45:06.681Z,79.33
2018-12-20T10:47:34.948Z,94.63
2018-12-20T10:50:03.289Z,77.70
2018-12-20T10:52:31.465Z,72.97
2018-12-20T10:54:59.661Z,80.70
2018-12-20T10:57:30.185Z,71.27
2018-12-20T10:59:58.347Z,78.67
2018-12-20T11:02:32.296Z,79.77
2018-12-20T11:05:01.940Z,75.40
2018-12-20T11:07:37.267Z,72.33
2018-12-20T11:10:13.488Z,71.97
2018-12-20T11:12:48.678Z,75.33
2018-12-20T11:15:18.273Z,79.53
2018-12-20T11:17:46.451Z,79.23
2018-12-20T11:20:14.636Z,77.40
2018-12-20T11:22:43.749Z,76.80
2018-12-20T11:25:11.913Z,74.63
2018-12-20T11:27:40.096Z,63.43
2018-12-20T11:30:10.298Z,73.30
2018-12-20T11:32:40.388Z,75.57
2018-12-20T11:35:08.759Z,65.90
2018-12-20T11:37:37.081Z,65.60
2018-12-20T11:40:05.289Z,65.50
2018-12-20T11:42:33.467Z,69.53
2018-12-20T11:45:03.069Z,74.50
2018-12-20T11:47:31.485Z,63.33
2018-12-20T11:49:59.692Z,63.70
2018-12-20T11:52:27.848Z,56.60
2018-12-20T11:54:57.579Z,56.50
2018-12-20T11:57:25.781Z,59.70
2018-12-20T11:59:54.010Z,60.00
2018-12-20T12:02:24.562Z,62.87
2018-12-20T12:04:52.521Z,64.20
2018-12-20T12:07:20.688Z,61.10
2018-12-20T12:09:48.882Z,60.47
2018-12-20T12:12:17.185Z,62.37
2018-12-20T12:14:46.883Z,60.87
2018-12-20T12:17:15.090Z,63.83
2018-12-20T12:19:44.209Z,59.03
2018-12-20T12:22:12.372Z,62.30
2018-12-20T12:24:43.021Z,68.27
2018-12-20T12:27:11.315Z,67.50
2018-12-20T12:29:39.608Z,69.07
2018-12-20T12:32:07.904Z,65.77
2018-12-20T12:34:36.077Z,67.87
2018-12-20T12:37:04.261Z,66.90
2018-12-20T12:39:32.452Z,66.50
2018-12-20T12:42:00.638Z,70.37
2018-12-20T12:44:28.809Z,65.20
2018-12-20T12:46:57.005Z,65.10
2018-12-20T12:49:25.331Z,64.00
2018-12-20T12:51:53.578Z,63.50
2018-12-20T12:54:21.839Z,64.67
2018-12-20T12:56:50.014Z,75.27
2018-12-20T12:59:18.200Z,60.87
2018-12-20T13:01:46.414Z,65.80
2018-12-20T13:04:14.584Z,60.10
2018-12-20T13:06:42.858Z,55.63
2018-12-20T13:09:11.067Z,56.23
2018-12-20T13:11:39.240Z,69.63
2018-12-20T13:14:07.408Z,74.20
2018-12-20T13:16:35.661Z,68.63
2018-12-20T13:19:03.977Z,69.20
2018-12-20T13:21:32.166Z,63.17
2018-12-20T13:24:00.385Z,69.50
2018-12-20T13:26:28.553Z,66.53
2018-12-20T13:28:56.712Z,76.27
2018-12-20T13:31:24.902Z,70.53
2018-12-20T13:33:53.226Z,72.33
2018-12-20T13:36:21.399Z,68.53
2018-12-20T13:38:49.703Z,60.70
2018-12-20T13:41:17.880Z,72.20
2018-12-20T13:43:46.118Z,69.20
2018-12-20T13:46:14.327Z,73.53
2018-12-20T13:48:42.519Z,64.07
2018-12-20T13:51:10.691Z,74.70
2018-12-20T13:53:38.888Z,66.67
2018-12-20T13:56:07.236Z,75.80
2018-12-20T13:58:37.671Z,69.50
2018-12-20T14:01:05.660Z,82.77
2018-12-20T14:03:33.936Z,82.83
2018-12-20T14:06:02.114Z,78.53
2018-12-20T14:08:30.319Z,75.20
2018-12-20T14:10:58.510Z,81.40
2018-12-20T14:13:26.672Z,81.40
2018-12-20T14:15:54.870Z,77.60
2018-12-20T14:18:30.636Z,72.57
2018-12-20T14:20:53.243Z,75.93
2018-12-20T14:23:21.480Z,87.17
2018-12-20T14:25:49.666Z,80.33
2018-12-20T14:28:17.840Z,81.80
2018-12-20T14:30:46.036Z,85.60
2018-12-20T14:33:14.219Z,77.70
2018-12-20T14:35:42.411Z,79.57
2018-12-20T14:38:10.701Z,84.23
2018-12-20T14:40:39.319Z,81.50
2018-12-20T14:43:07.543Z,91.43
2018-12-20T14:45:35.747Z,77.57
2018-12-20T14:48:03.928Z,102.63
2018-12-20T14:50:32.115Z,86.00
2018-12-20T14:53:00.399Z,96.17
2018-12-20T14:55:28.585Z,85.33
2018-12-20T14:57:56.760Z,87.00
2018-12-20T15:00:24.969Z,72.70
2018-12-20T15:02:53.148Z,91.93
2018-12-20T15:05:21.384Z,97.90
2018-12-20T15:07:52.871Z,86.40
2018-12-20T15:10:21.044Z,79.77
2018-12-20T15:12:49.236Z,89.97
2018-12-20T15:15:17.444Z,84.90
2018-12-20T15:17:45.625Z,76.63
2018-12-20T15:20:13.794Z,85.83
2018-12-20T15:22:41.994Z,78.30
2018-12-20T15:25:10.273Z,84.23
2018-12-20T15:27:38.450Z,92.80
2018-12-20T15:30:10.755Z,78.33
2018-12-20T15:32:38.967Z,84.37
2018-12-20T15:35:07.160Z,84.63
2018-12-20T15:37:35.367Z,88.70
2018-12-20T15:40:06.073Z,98.40
2018-12-20T15:42:34.301Z,87.83
2018-12-20T15:45:02.510Z,82.63
2018-12-20T15:47:30.771Z,92.20
2018-12-20T15:49:58.966Z,83.53
2018-12-20T15:52:27.334Z,93.50
2018-12-20T15:54:55.680Z,87.13
2018-12-20T15:57:23.853Z,89.40
2018-12-20T15:59:52.172Z,90.13
2018-12-20T16:02:20.351Z,85.90
2018-12-20T16:04:48.765Z,74.73
2018-12-20T16:07:16.961Z,83.63
2018-12-20T16:09:45.151Z,89.70
2018-12-20T16:12:13.458Z,84.03
2018-12-20T16:14:41.672Z,97.43
2018-12-20T16:17:09.840Z,78.60
2018-12-20T16:19:38.201Z,79.83
2018-12-20T16:22:06.586Z,88.10
2018-12-20T16:24:34.772Z,87.03
2018-12-20T16:27:02.957Z,90.47
2018-12-20T16:29:31.181Z,88.43
2018-12-20T16:31:59.654Z,86.63
2018-12-20T16:34:27.928Z,91.03
2018-12-20T16:36:56.117Z,95.70
2018-12-20T16:39:24.293Z,86.30
2018-12-20T16:41:52.588Z,89.10
2018-12-20T16:44:20.841Z,88.33
2018-12-20T16:46:49.013Z,98.30
2018-12-20T16:49:17.184Z,93.70
2018-12-20T16:51:45.804Z,90.43
2018-12-20T16:54:13.979Z,105.43
2018-12-20T16:56:42.530Z,98.27
2018-12-20T16:59:10.905Z,94.63
2018-12-20T17:01:39.560Z,100.33
2018-12-20T17:04:07.732Z,95.60
2018-12-20T17:06:35.918Z,96.37
2018-12-20T17:09:06.883Z,101.27
2018-12-20T17:11:35.448Z,92.30
2018-12-20T17:14:04.243Z,95.80
2018-12-20T17:16:32.562Z,87.30
2018-12-20T17:19:00.734Z,98.67
2018-12-20T17:21:29.056Z,94.17
2018-12-20T17:23:57.248Z,92.23
2018-12-20T17:26:25.430Z,107.47
2018-12-20T17:28:53.649Z,97.17
2018-12-20T17:31:21.833Z,107.67
2018-12-20T17:33:50.158Z,88.27
2018-12-20T17:36:18.358Z,102.33
2018-12-20T17:38:46.540Z,94.03
2018-12-20T17:41:14.733Z,95.20
2018-12-20T17:43:43.052Z,85.60
2018-12-20T17:46:11.264Z,99.90
2018-12-20T17:48:39.457Z,100.93
2018-12-20T17:51:07.658Z,94.43
2018-12-20T17:53:35.855Z,102.00
2018-12-20T17:56:04.033Z,94.03
2018-12-20T17:58:32.246Z,97.70
2018-12-20T18:01:00.424Z,111.23
2018-12-20T18:03:28.609Z,106.37
2018-12-20T18:05:56.812Z,89.77
2018-12-20T18:08:24.999Z,102.33
2018-12-20T18:10:53.182Z,106.10
2018-12-20T18:13:21.392Z,86.40
2018-12-20T18:15:49.570Z,94.37
2018-12-20T18:18:17.765Z,94.67
2018-12-20T18:20:46.006Z,89.87
2018-12-20T18:23:14.189Z,106.93
2018-12-20T18:25:42.369Z,119.33
2018-12-20T18:28:10.603Z,158.57
2018-12-20T18:30:38.787Z,113.50
2018-12-20T18:33:06.970Z,136.07
2018-12-20T18:35:35.185Z,105.20
2018-12-20T18:38:03.356Z,97.40
2018-12-20T18:40:31.550Z,88.77
2018-12-20T18:43:01.747Z,79.33
2018-12-20T18:45:29.983Z,80.83
2018-12-20T18:47:58.376Z,85.87
2018-12-20T18:50:26.597Z,94.60
2018-12-20T18:52:54.796Z,93.60
2018-12-20T18:55:23.011Z,98.40
2018-12-20T18:57:51.219Z,94.90
2018-12-20T19:00:19.407Z,93.47
2018-12-20T19:02:47.712Z,101.37
2018-12-20T19:05:15.939Z,108.83
2018-12-20T19:07:44.136Z,99.20
2018-12-20T19:10:12.320Z,93.30
2018-12-20T19:12:40.644Z,85.53
2018-12-20T19:15:09.199Z,91.90
2018-12-20T19:17:37.513Z,90.30
2018-12-20T19:20:15.837Z,92.57
2018-12-20T19:22:38.605Z,96.50
2018-12-20T19:25:06.784Z,93.80
2018-12-20T19:27:34.988Z,81.87
2018-12-20T19:30:04.038Z,89.17
2018-12-20T19:32:32.281Z,104.60
2018-12-20T19:35:00.488Z,102.60
2018-12-20T19:37:28.807Z,83.83
2018-12-20T19:39:59.178Z,87.73
2018-12-20T19:42:27.462Z,94.77
2018-12-20T19:44:56.743Z,94.97
2018-12-20T19:47:25.089Z,95.70
2018-12-20T19:49:53.283Z,96.50
2018-12-20T19:52:21.544Z,101.77
2018-12-20T19:54:49.715Z,95.20
2018-12-20T19:57:17.916Z,98.47
2018-12-20T19:59:46.093Z,96.10
2018-12-20T20:02:14.272Z,89.70
2018-12-20T20:04:42.474Z,88.83
2018-12-20T20:07:10.656Z,93.83
2018-12-20T20:09:38.827Z,91.60
2018-12-20T20:12:07.042Z,89.03
2018-12-20T20:14:35.236Z,100.00
2018-12-20T20:17:03.432Z,91.57
2018-12-20T20:19:31.654Z,98.13
2018-12-20T20:21:59.840Z,98.77
2018-12-20T20:24:28.109Z,100.37
2018-12-20T20:26:56.310Z,99.60
2018-12-20T20:29:24.502Z,103.70
2018-12-20T20:31:52.688Z,97.80
2018-12-20T20:34:21.108Z,100.57
2018-12-20T20:36:49.467Z,95.07
2018-12-20T20:39:17.737Z,115.00
2018-12-20T20:41:45.944Z,110.13
2018-12-20T20:44:14.136Z,109.00
2018-12-20T20:46:42.480Z,110.23
2018-12-20T20:49:10.683Z,106.03
2018-12-20T20:51:38.880Z,114.03
2018-12-20T20:54:07.150Z,114.87
2018-12-20T20:56:35.369Z,113.67
2018-12-20T20:59:03.552Z,96.93
2018-12-20T21:01:31.735Z,103.43
2018-12-20T21:04:03.840Z,124.00
2018-12-20T21:06:30.160Z,110.67
2018-12-20T21:08:58.336Z,113.27
2018-12-20T21:11:26.561Z,129.47
2018-12-20T21:13:54.852Z,108.97
2018-12-20T21:16:23.147Z,107.73
2018-12-20T21:18:51.372Z,91.23
2018-12-20T21:21:19.552Z,115.47
2018-12-20T21:23:47.749Z,104.50
2018-12-20T21:26:15.969Z,104.30
2018-12-20T21:28:44.225Z,105.37
2018-12-20T21:31:12.411Z,106.77
2018-12-20T21:33:40.600Z,100.33
2018-12-20T21:36:08.895Z,101.17
2018-12-20T21:38:37.286Z,98.97
2018-12-20T21:41:05.497Z,103.53
2018-12-20T21:43:33.786Z,98.03
2018-12-20T21:46:01.979Z,105.07
2018-12-20T21:48:30.218Z,101.83
2018-12-20T21:50:58.540Z,99.77
2018-12-20T21:53:26.726Z,88.33
2018-12-20T21:55:54.976Z,97.00
2018-12-20T21:58:23.278Z,105.93
2018-12-20T22:00:51.538Z,104.23
2018-12-20T22:03:19.739Z,108.07
2018-12-20T22:05:47.924Z,98.67
2018-12-20T22:08:16.176Z,118.97
2018-12-20T22:10:44.383Z,108.50
2018-12-20T22:13:12.558Z,105.43
2018-12-20T22:15:40.785Z,110.07
2018-12-20T22:18:08.985Z,123.27
2018-12-20T22:20:37.159Z,125.20
2018-12-20T22:23:05.345Z,129.63
2018-12-20T22:25:33.572Z,119.70
2018-12-20T22:28:01.763Z,121.27
2018-12-20T22:30:29.929Z,116.43
2018-12-20T22:32:58.136Z,119.73
2018-12-20T22:35:26.317Z,119.20
2018-12-20T22:37:54.495Z,118.30
2018-12-20T22:40:22.819Z,109.83
2018-12-20T22:42:50.984Z,123.70
2018-12-20T22:45:32.905Z,126.53
2018-12-20T22:48:16.807Z,134.37
2018-12-20T22:51:02.430Z,130.57
2018-12-20T22:53:45.195Z,122.10
2018-12-20T22:56:13.407Z,128.07
2018-12-20T22:58:41.625Z,126.77
2018-12-20T23:01:09.803Z,121.00
2018-12-20T23:03:38.028Z,124.03
2018-12-20T23:06:06.203Z,118.20
2018-12-20T23:08:34.484Z,117.40
2018-12-20T23:11:02.664Z,119.73
2018-12-20T23:13:30.835Z,122.37
2018-12-20T23:15:59.014Z,112.80
2018-12-20T23:18:27.296Z,123.40
2018-12-20T23:20:55.473Z,121.40
2018-12-20T23:23:23.644Z,112.83
2018-12-20T23:25:51.838Z,126.93
2018-12-20T23:28:20.036Z,104.00
2018-12-20T23:30:48.229Z,127.07
2018-12-20T23:33:16.437Z,152.33
2018-12-20T23:35:44.622Z,140.43
2018-12-20T23:38:12.878Z,127.03
2018-12-20T23:40:46.998Z,127.90
2018-12-20T23:43:15.181Z,130.47
2018-12-20T23:45:43.374Z,132.47
2018-12-20T23:48:11.588Z,131.27
2018-12-20T23:50:39.767Z,134.23
2018-12-20T23:53:07.943Z,130.07
2018-12-20T23:55:36.151Z,130.83
2018-12-20T23:58:04.324Z,130.40
